sensor_id;sensor_type;location;lat;lon;timestamp;P1;durP1;ratioP1;P2;durP2;ratioP2
10880;SDS011;5493;48.884;8.338;2022-10-16T00:00:42;0.80;;;0.50;;
10880;SDS011;5493;48.884;8.338;2022-10-16T00:03:09;1.70;;;0.53;;
10880;SDS011;5493;48.884;8.338;2022-10-16T00:05:39;3.20;;;0.53;;
10880;SDS011;5493;48.884;8.338;2022-10-16T00:08:07;0.73;;;0.70;;
10880;SDS011;5493;48.884;8.338;2022-10-16T00:10:34;1.37;;;0.60;;
10880;SDS011;5493;48.884;8.338;2022-10-16T00:13:03;1.43;;;0.60;;
10880;SDS011;5493;48.884;8.338;2022-10-16T00:15:30;1.27;;;0.70;;
10880;SDS011;5493;48.884;8.338;2022-10-16T00:17:58;1.23;;;0.60;;
10880;SDS011;5493;48.884;8.338;2022-10-16T00:20:25;1.03;;;0.63;;
10880;SDS011;5493;48.884;8.338;2022-10-16T00:22:52;2.00;;;0.60;;
10880;SDS011;5493;48.884;8.338;2022-10-16T00:25:18;1.53;;;0.80;;
10880;SDS011;5493;48.884;8.338;2022-10-16T00:27:45;1.13;;;0.70;;
10880;SDS011;5493;48.884;8.338;2022-10-16T00:30:13;2.43;;;0.47;;
10880;SDS011;5493;48.884;8.338;2022-10-16T00:32:39;1.43;;;0.63;;
10880;SDS011;5493;48.884;8.338;2022-10-16T00:35:06;1.00;;;0.70;;
10880;SDS011;5493;48.884;8.338;2022-10-16T00:37:32;2.17;;;0.70;;
10880;SDS011;5493;48.884;8.338;2022-10-16T00:39:59;0.90;;;0.90;;
10880;SDS011;5493;48.884;8.338;2022-10-16T00:42:26;1.57;;;0.63;;
10880;SDS011;5493;48.884;8.338;2022-10-16T00:44:52;0.40;;;0.40;;
10880;SDS011;5493;48.884;8.338;2022-10-16T00:47:24;2.10;;;0.80;;
10880;SDS011;5493;48.884;8.338;2022-10-16T00:49:56;1.20;;;0.77;;
10880;SDS011;5493;48.884;8.338;2022-10-16T00:52:26;0.70;;;0.50;;
10880;SDS011;5493;48.884;8.338;2022-10-16T00:54:53;3.37;;;0.80;;
10880;SDS011;5493;48.884;8.338;2022-10-16T00:57:20;4.30;;;0.90;;
10880;SDS011;5493;48.884;8.338;2022-10-16T00:59:47;1.03;;;0.60;;
10880;SDS011;5493;48.884;8.338;2022-10-16T01:02:14;2.73;;;0.80;;
10880;SDS011;5493;48.884;8.338;2022-10-16T01:04:44;3.20;;;0.73;;
10880;SDS011;5493;48.884;8.338;2022-10-16T01:07:14;1.23;;;0.80;;
10880;SDS011;5493;48.884;8.338;2022-10-16T01:09:54;1.57;;;0.77;;
10880;SDS011;5493;48.884;8.338;2022-10-16T01:12:32;2.97;;;0.80;;
10880;SDS011;5493;48.884;8.338;2022-10-16T01:15:06;1.80;;;0.93;;
10880;SDS011;5493;48.884;8.338;2022-10-16T01:17:39;2.37;;;0.60;;
10880;SDS011;5493;48.884;8.338;2022-10-16T01:20:13;1.93;;;0.80;;
10880;SDS011;5493;48.884;8.338;2022-10-16T01:22:49;1.00;;;0.83;;
10880;SDS011;5493;48.884;8.338;2022-10-16T01:25:29;1.47;;;0.77;;
10880;SDS011;5493;48.884;8.338;2022-10-16T01:28:05;1.40;;;0.87;;
10880;SDS011;5493;48.884;8.338;2022-10-16T01:30:37;1.30;;;0.60;;
10880;SDS011;5493;48.884;8.338;2022-10-16T01:33:06;5.23;;;1.00;;
10880;SDS011;5493;48.884;8.338;2022-10-16T01:35:41;1.10;;;0.70;;
10880;SDS011;5493;48.884;8.338;2022-10-16T01:38:12;1.90;;;0.67;;
10880;SDS011;5493;48.884;8.338;2022-10-16T01:40:44;6.20;;;1.10;;
10880;SDS011;5493;48.884;8.338;2022-10-16T01:43:15;3.63;;;0.63;;
10880;SDS011;5493;48.884;8.338;2022-10-16T01:45:45;0.87;;;0.80;;
10880;SDS011;5493;48.884;8.338;2022-10-16T01:48:12;2.60;;;0.80;;
10880;SDS011;5493;48.884;8.338;2022-10-16T01:50:43;1.67;;;0.70;;
10880;SDS011;5493;48.884;8.338;2022-10-16T01:53:14;0.80;;;0.73;;
10880;SDS011;5493;48.884;8.338;2022-10-16T01:55:44;1.77;;;0.80;;
10880;SDS011;5493;48.884;8.338;2022-10-16T01:58:15;2.60;;;0.90;;
10880;SDS011;5493;48.884;8.338;2022-10-16T02:00:42;0.70;;;0.67;;
10880;SDS011;5493;48.884;8.338;2022-10-16T02:03:11;0.80;;;0.60;;
10880;SDS011;5493;48.884;8.338;2022-10-16T02:05:40;1.03;;;0.83;;
10880;SDS011;5493;48.884;8.338;2022-10-16T02:08:11;2.67;;;0.77;;
10880;SDS011;5493;48.884;8.338;2022-10-16T02:10:38;0.97;;;0.60;;
10880;SDS011;5493;48.884;8.338;2022-10-16T02:13:06;1.30;;;0.80;;
10880;SDS011;5493;48.884;8.338;2022-10-16T02:15:36;2.87;;;0.70;;
10880;SDS011;5493;48.884;8.338;2022-10-16T02:18:03;5.87;;;1.00;;
10880;SDS011;5493;48.884;8.338;2022-10-16T02:20:32;9.53;;;0.93;;
10880;SDS011;5493;48.884;8.338;2022-10-16T02:23:02;4.33;;;0.90;;
10880;SDS011;5493;48.884;8.338;2022-10-16T02:25:30;3.90;;;0.70;;
10880;SDS011;5493;48.884;8.338;2022-10-16T02:28:01;3.33;;;0.90;;
10880;SDS011;5493;48.884;8.338;2022-10-16T02:30:33;0.90;;;0.43;;
10880;SDS011;5493;48.884;8.338;2022-10-16T02:33:05;2.67;;;0.87;;
10880;SDS011;5493;48.884;8.338;2022-10-16T02:35:35;0.83;;;0.70;;
10880;SDS011;5493;48.884;8.338;2022-10-16T02:38:03;3.07;;;0.63;;
10880;SDS011;5493;48.884;8.338;2022-10-16T02:40:30;2.67;;;0.60;;
10880;SDS011;5493;48.884;8.338;2022-10-16T02:42:57;3.87;;;0.93;;
10880;SDS011;5493;48.884;8.338;2022-10-16T02:45:24;4.07;;;0.60;;
10880;SDS011;5493;48.884;8.338;2022-10-16T02:47:50;3.50;;;0.90;;
10880;SDS011;5493;48.884;8.338;2022-10-16T02:50:18;1.93;;;0.53;;
10880;SDS011;5493;48.884;8.338;2022-10-16T02:52:45;3.87;;;0.70;;
10880;SDS011;5493;48.884;8.338;2022-10-16T02:55:12;1.90;;;0.73;;
10880;SDS011;5493;48.884;8.338;2022-10-16T02:57:38;1.70;;;0.63;;
10880;SDS011;5493;48.884;8.338;2022-10-16T03:00:05;2.43;;;0.70;;
10880;SDS011;5493;48.884;8.338;2022-10-16T03:02:32;3.57;;;0.70;;
10880;SDS011;5493;48.884;8.338;2022-10-16T03:04:59;3.57;;;0.50;;
10880;SDS011;5493;48.884;8.338;2022-10-16T03:07:27;3.90;;;0.60;;
10880;SDS011;5493;48.884;8.338;2022-10-16T03:09:53;4.63;;;0.90;;
10880;SDS011;5493;48.884;8.338;2022-10-16T03:12:20;2.87;;;0.70;;
10880;SDS011;5493;48.884;8.338;2022-10-16T03:14:47;1.13;;;0.80;;
10880;SDS011;5493;48.884;8.338;2022-10-16T03:17:14;4.10;;;0.70;;
10880;SDS011;5493;48.884;8.338;2022-10-16T03:19:41;2.80;;;0.80;;
10880;SDS011;5493;48.884;8.338;2022-10-16T03:22:08;3.80;;;0.93;;
10880;SDS011;5493;48.884;8.338;2022-10-16T03:24:36;0.97;;;0.60;;
10880;SDS011;5493;48.884;8.338;2022-10-16T03:27:02;5.30;;;1.20;;
10880;SDS011;5493;48.884;8.338;2022-10-16T03:29:29;1.53;;;0.80;;
10880;SDS011;5493;48.884;8.338;2022-10-16T03:31:57;2.93;;;0.80;;
10880;SDS011;5493;48.884;8.338;2022-10-16T03:34:23;4.07;;;0.90;;
10880;SDS011;5493;48.884;8.338;2022-10-16T03:36:50;2.23;;;0.60;;
10880;SDS011;5493;48.884;8.338;2022-10-16T03:39:17;3.27;;;0.83;;
10880;SDS011;5493;48.884;8.338;2022-10-16T03:41:45;5.07;;;0.80;;
10880;SDS011;5493;48.884;8.338;2022-10-16T03:44:12;2.90;;;0.80;;
10880;SDS011;5493;48.884;8.338;2022-10-16T03:46:39;4.60;;;1.03;;
10880;SDS011;5493;48.884;8.338;2022-10-16T03:49:06;4.20;;;0.80;;
10880;SDS011;5493;48.884;8.338;2022-10-16T03:51:32;5.50;;;0.80;;
10880;SDS011;5493;48.884;8.338;2022-10-16T03:53:59;0.90;;;0.60;;
10880;SDS011;5493;48.884;8.338;2022-10-16T03:56:25;5.60;;;1.13;;
10880;SDS011;5493;48.884;8.338;2022-10-16T03:58:53;1.50;;;0.50;;
10880;SDS011;5493;48.884;8.338;2022-10-16T04:01:20;2.57;;;0.80;;
10880;SDS011;5493;48.884;8.338;2022-10-16T04:03:46;0.93;;;0.63;;
10880;SDS011;5493;48.884;8.338;2022-10-16T04:06:13;2.90;;;0.90;;
10880;SDS011;5493;48.884;8.338;2022-10-16T04:08:41;0.60;;;0.50;;
10880;SDS011;5493;48.884;8.338;2022-10-16T04:11:08;0.60;;;0.60;;
10880;SDS011;5493;48.884;8.338;2022-10-16T04:13:35;4.73;;;0.90;;
10880;SDS011;5493;48.884;8.338;2022-10-16T04:16:03;3.40;;;1.10;;
10880;SDS011;5493;48.884;8.338;2022-10-16T04:18:30;0.90;;;0.80;;
10880;SDS011;5493;48.884;8.338;2022-10-16T04:20:57;1.50;;;0.50;;
10880;SDS011;5493;48.884;8.338;2022-10-16T04:23:28;1.83;;;0.70;;
10880;SDS011;5493;48.884;8.338;2022-10-16T04:25:55;1.77;;;0.90;;
10880;SDS011;5493;48.884;8.338;2022-10-16T04:28:21;4.87;;;1.30;;
10880;SDS011;5493;48.884;8.338;2022-10-16T04:30:48;4.97;;;1.10;;
10880;SDS011;5493;48.884;8.338;2022-10-16T04:33:15;1.83;;;0.83;;
10880;SDS011;5493;48.884;8.338;2022-10-16T04:35:42;3.63;;;1.00;;
10880;SDS011;5493;48.884;8.338;2022-10-16T04:38:08;4.17;;;0.87;;
10880;SDS011;5493;48.884;8.338;2022-10-16T04:40:35;3.57;;;1.30;;
10880;SDS011;5493;48.884;8.338;2022-10-16T04:43:02;2.70;;;1.00;;
10880;SDS011;5493;48.884;8.338;2022-10-16T04:45:28;6.23;;;1.27;;
10880;SDS011;5493;48.884;8.338;2022-10-16T04:47:56;5.23;;;1.50;;
10880;SDS011;5493;48.884;8.338;2022-10-16T04:50:24;3.40;;;0.90;;
10880;SDS011;5493;48.884;8.338;2022-10-16T04:52:51;2.73;;;1.00;;
10880;SDS011;5493;48.884;8.338;2022-10-16T04:55:18;2.97;;;1.10;;
10880;SDS011;5493;48.884;8.338;2022-10-16T04:57:44;2.13;;;1.17;;
10880;SDS011;5493;48.884;8.338;2022-10-16T05:00:11;4.07;;;0.93;;
10880;SDS011;5493;48.884;8.338;2022-10-16T05:02:38;2.87;;;1.33;;
10880;SDS011;5493;48.884;8.338;2022-10-16T05:05:05;8.10;;;1.27;;
10880;SDS011;5493;48.884;8.338;2022-10-16T05:07:33;2.70;;;0.70;;
10880;SDS011;5493;48.884;8.338;2022-10-16T05:10:00;2.03;;;0.90;;
10880;SDS011;5493;48.884;8.338;2022-10-16T05:12:26;4.20;;;1.40;;
10880;SDS011;5493;48.884;8.338;2022-10-16T05:14:53;2.77;;;1.30;;
10880;SDS011;5493;48.884;8.338;2022-10-16T05:17:23;1.40;;;1.30;;
10880;SDS011;5493;48.884;8.338;2022-10-16T05:19:50;2.87;;;1.63;;
10880;SDS011;5493;48.884;8.338;2022-10-16T05:22:16;5.93;;;1.50;;
10880;SDS011;5493;48.884;8.338;2022-10-16T05:24:44;1.50;;;1.37;;
10880;SDS011;5493;48.884;8.338;2022-10-16T05:27:11;4.03;;;1.20;;
10880;SDS011;5493;48.884;8.338;2022-10-16T05:29:43;1.13;;;1.03;;
10880;SDS011;5493;48.884;8.338;2022-10-16T05:32:10;6.20;;;1.43;;
10880;SDS011;5493;48.884;8.338;2022-10-16T05:34:37;8.30;;;1.43;;
10880;SDS011;5493;48.884;8.338;2022-10-16T05:37:03;2.43;;;1.00;;
10880;SDS011;5493;48.884;8.338;2022-10-16T05:39:30;2.50;;;1.00;;
10880;SDS011;5493;48.884;8.338;2022-10-16T05:41:58;5.57;;;1.33;;
10880;SDS011;5493;48.884;8.338;2022-10-16T05:44:25;4.57;;;1.20;;
10880;SDS011;5493;48.884;8.338;2022-10-16T05:46:51;1.37;;;1.00;;
10880;SDS011;5493;48.884;8.338;2022-10-16T05:49:18;3.03;;;0.90;;
10880;SDS011;5493;48.884;8.338;2022-10-16T05:51:44;1.73;;;1.20;;
10880;SDS011;5493;48.884;8.338;2022-10-16T05:54:11;4.63;;;1.83;;
10880;SDS011;5493;48.884;8.338;2022-10-16T05:56:38;1.67;;;1.20;;
10880;SDS011;5493;48.884;8.338;2022-10-16T05:59:05;5.97;;;2.60;;
10880;SDS011;5493;48.884;8.338;2022-10-16T06:01:32;4.30;;;0.90;;
10880;SDS011;5493;48.884;8.338;2022-10-16T06:04:00;1.10;;;1.00;;
10880;SDS011;5493;48.884;8.338;2022-10-16T06:06:28;2.20;;;1.03;;
10880;SDS011;5493;48.884;8.338;2022-10-16T06:08:57;4.80;;;1.20;;
10880;SDS011;5493;48.884;8.338;2022-10-16T06:11:25;3.20;;;1.07;;
10880;SDS011;5493;48.884;8.338;2022-10-16T06:13:54;3.70;;;1.20;;
10880;SDS011;5493;48.884;8.338;2022-10-16T06:16:24;4.27;;;1.23;;
10880;SDS011;5493;48.884;8.338;2022-10-16T06:18:51;5.10;;;1.40;;
10880;SDS011;5493;48.884;8.338;2022-10-16T06:21:19;3.23;;;1.60;;
10880;SDS011;5493;48.884;8.338;2022-10-16T06:23:47;1.90;;;1.20;;
10880;SDS011;5493;48.884;8.338;2022-10-16T06:26:14;1.47;;;1.20;;
10880;SDS011;5493;48.884;8.338;2022-10-16T06:28:42;3.53;;;1.50;;
10880;SDS011;5493;48.884;8.338;2022-10-16T06:31:09;5.90;;;1.50;;
10880;SDS011;5493;48.884;8.338;2022-10-16T06:33:38;3.33;;;1.50;;
10880;SDS011;5493;48.884;8.338;2022-10-16T06:36:05;6.10;;;1.13;;
10880;SDS011;5493;48.884;8.338;2022-10-16T06:38:34;8.37;;;1.50;;
10880;SDS011;5493;48.884;8.338;2022-10-16T06:41:01;2.07;;;1.47;;
10880;SDS011;5493;48.884;8.338;2022-10-16T06:43:28;3.43;;;1.57;;
10880;SDS011;5493;48.884;8.338;2022-10-16T06:45:57;3.60;;;1.40;;
10880;SDS011;5493;48.884;8.338;2022-10-16T06:48:25;5.40;;;1.93;;
10880;SDS011;5493;48.884;8.338;2022-10-16T06:50:57;5.70;;;1.67;;
10880;SDS011;5493;48.884;8.338;2022-10-16T06:53:24;4.30;;;1.37;;
10880;SDS011;5493;48.884;8.338;2022-10-16T06:55:52;3.60;;;1.20;;
10880;SDS011;5493;48.884;8.338;2022-10-16T06:58:19;3.97;;;1.20;;
10880;SDS011;5493;48.884;8.338;2022-10-16T07:00:46;4.17;;;1.27;;
10880;SDS011;5493;48.884;8.338;2022-10-16T07:03:12;6.10;;;1.53;;
10880;SDS011;5493;48.884;8.338;2022-10-16T07:05:39;1.40;;;1.20;;
10880;SDS011;5493;48.884;8.338;2022-10-16T07:08:08;2.93;;;1.20;;
10880;SDS011;5493;48.884;8.338;2022-10-16T07:10:35;2.33;;;1.20;;
10880;SDS011;5493;48.884;8.338;2022-10-16T07:13:01;1.93;;;1.20;;
10880;SDS011;5493;48.884;8.338;2022-10-16T07:15:28;3.13;;;1.20;;
10880;SDS011;5493;48.884;8.338;2022-10-16T07:17:54;3.07;;;1.30;;
10880;SDS011;5493;48.884;8.338;2022-10-16T07:20:21;5.03;;;1.20;;
10880;SDS011;5493;48.884;8.338;2022-10-16T07:22:48;3.03;;;1.20;;
10880;SDS011;5493;48.884;8.338;2022-10-16T07:25:15;1.20;;;1.10;;
10880;SDS011;5493;48.884;8.338;2022-10-16T07:27:42;2.30;;;1.20;;
10880;SDS011;5493;48.884;8.338;2022-10-16T07:30:09;2.03;;;1.53;;
10880;SDS011;5493;48.884;8.338;2022-10-16T07:32:36;2.07;;;1.50;;
10880;SDS011;5493;48.884;8.338;2022-10-16T07:35:02;4.40;;;1.20;;
10880;SDS011;5493;48.884;8.338;2022-10-16T07:37:29;2.20;;;1.10;;
10880;SDS011;5493;48.884;8.338;2022-10-16T07:39:56;5.50;;;1.27;;
10880;SDS011;5493;48.884;8.338;2022-10-16T07:42:24;5.60;;;1.03;;
10880;SDS011;5493;48.884;8.338;2022-10-16T07:44:50;4.03;;;1.20;;
10880;SDS011;5493;48.884;8.338;2022-10-16T07:47:17;2.30;;;1.30;;
10880;SDS011;5493;48.884;8.338;2022-10-16T07:49:43;4.20;;;0.90;;
10880;SDS011;5493;48.884;8.338;2022-10-16T07:52:10;4.37;;;1.77;;
10880;SDS011;5493;48.884;8.338;2022-10-16T07:54:36;1.87;;;1.10;;
10880;SDS011;5493;48.884;8.338;2022-10-16T07:57:03;1.27;;;0.80;;
10880;SDS011;5493;48.884;8.338;2022-10-16T07:59:31;2.10;;;0.87;;
10880;SDS011;5493;48.884;8.338;2022-10-16T08:01:58;2.50;;;1.30;;
10880;SDS011;5493;48.884;8.338;2022-10-16T08:04:24;1.47;;;1.03;;
10880;SDS011;5493;48.884;8.338;2022-10-16T08:06:51;4.37;;;1.27;;
10880;SDS011;5493;48.884;8.338;2022-10-16T08:09:19;5.50;;;1.23;;
10880;SDS011;5493;48.884;8.338;2022-10-16T08:11:46;5.60;;;1.37;;
10880;SDS011;5493;48.884;8.338;2022-10-16T08:14:12;3.17;;;1.10;;
10880;SDS011;5493;48.884;8.338;2022-10-16T08:16:40;1.93;;;0.90;;
10880;SDS011;5493;48.884;8.338;2022-10-16T08:19:06;2.27;;;0.90;;
10880;SDS011;5493;48.884;8.338;2022-10-16T08:21:33;2.77;;;1.10;;
10880;SDS011;5493;48.884;8.338;2022-10-16T08:24:00;1.47;;;0.83;;
10880;SDS011;5493;48.884;8.338;2022-10-16T08:26:26;1.53;;;0.90;;
10880;SDS011;5493;48.884;8.338;2022-10-16T08:28:53;3.47;;;1.10;;
10880;SDS011;5493;48.884;8.338;2022-10-16T08:31:20;2.13;;;1.30;;
10880;SDS011;5493;48.884;8.338;2022-10-16T08:33:48;1.17;;;0.97;;
10880;SDS011;5493;48.884;8.338;2022-10-16T08:36:15;1.17;;;0.90;;
10880;SDS011;5493;48.884;8.338;2022-10-16T08:38:42;1.87;;;1.20;;
10880;SDS011;5493;48.884;8.338;2022-10-16T08:41:16;2.53;;;1.50;;
10880;SDS011;5493;48.884;8.338;2022-10-16T08:43:54;5.90;;;1.03;;
10880;SDS011;5493;48.884;8.338;2022-10-16T08:46:38;4.60;;;1.00;;
10880;SDS011;5493;48.884;8.338;2022-10-16T08:49:12;3.40;;;1.10;;
10880;SDS011;5493;48.884;8.338;2022-10-16T08:51:40;1.57;;;1.30;;
10880;SDS011;5493;48.884;8.338;2022-10-16T08:54:11;3.38;;;1.10;;
10880;SDS011;5493;48.884;8.338;2022-10-16T08:56:48;1.65;;;0.93;;
10880;SDS011;5493;48.884;8.338;2022-10-16T08:59:15;1.23;;;0.95;;
10880;SDS011;5493;48.884;8.338;2022-10-16T09:01:43;3.03;;;1.00;;
10880;SDS011;5493;48.884;8.338;2022-10-16T09:07:13;1.35;;;1.00;;
10880;SDS011;5493;48.884;8.338;2022-10-16T09:09:53;1.48;;;0.90;;
10880;SDS011;5493;48.884;8.338;2022-10-16T09:12:27;1.20;;;0.90;;
10880;SDS011;5493;48.884;8.338;2022-10-16T09:15:03;1.55;;;0.93;;
10880;SDS011;5493;48.884;8.338;2022-10-16T09:17:41;1.65;;;1.20;;
10880;SDS011;5493;48.884;8.338;2022-10-16T09:20:19;3.20;;;1.38;;
10880;SDS011;5493;48.884;8.338;2022-10-16T09:22:53;4.32;;;1.23;;
10880;SDS011;5493;48.884;8.338;2022-10-16T09:25:27;2.20;;;1.15;;
10880;SDS011;5493;48.884;8.338;2022-10-16T09:27:54;3.47;;;1.20;;
10880;SDS011;5493;48.884;8.338;2022-10-16T09:30:22;4.25;;;1.30;;
10880;SDS011;5493;48.884;8.338;2022-10-16T09:32:50;3.40;;;1.27;;
10880;SDS011;5493;48.884;8.338;2022-10-16T09:35:20;3.15;;;1.63;;
10880;SDS011;5493;48.884;8.338;2022-10-16T09:37:51;1.83;;;1.27;;
10880;SDS011;5493;48.884;8.338;2022-10-16T09:40:25;1.95;;;1.20;;
10880;SDS011;5493;48.884;8.338;2022-10-16T09:43:02;2.50;;;1.33;;
10880;SDS011;5493;48.884;8.338;2022-10-16T09:45:37;3.08;;;1.42;;
10880;SDS011;5493;48.884;8.338;2022-10-16T09:48:10;5.00;;;1.27;;
10880;SDS011;5493;48.884;8.338;2022-10-16T09:50:38;1.98;;;1.10;;
10880;SDS011;5493;48.884;8.338;2022-10-16T09:53:08;2.88;;;1.30;;
10880;SDS011;5493;48.884;8.338;2022-10-16T09:55:47;3.58;;;1.20;;
10880;SDS011;5493;48.884;8.338;2022-10-16T09:58:15;4.25;;;1.80;;
10880;SDS011;5493;48.884;8.338;2022-10-16T10:00:42;2.75;;;1.40;;
10880;SDS011;5493;48.884;8.338;2022-10-16T10:03:32;3.25;;;1.35;;
10880;SDS011;5493;48.884;8.338;2022-10-16T10:06:05;3.53;;;1.60;;
10880;SDS011;5493;48.884;8.338;2022-10-16T10:08:51;1.63;;;1.30;;
10880;SDS011;5493;48.884;8.338;2022-10-16T10:14:05;2.25;;;1.30;;
10880;SDS011;5493;48.884;8.338;2022-10-16T10:16:32;7.50;;;1.27;;
10880;SDS011;5493;48.884;8.338;2022-10-16T10:18:59;1.35;;;1.20;;
10880;SDS011;5493;48.884;8.338;2022-10-16T10:21:27;6.70;;;1.30;;
10880;SDS011;5493;48.884;8.338;2022-10-16T10:23:56;3.33;;;1.52;;
10880;SDS011;5493;48.884;8.338;2022-10-16T10:26:23;4.55;;;1.15;;
10880;SDS011;5493;48.884;8.338;2022-10-16T10:28:55;2.92;;;1.30;;
10880;SDS011;5493;48.884;8.338;2022-10-16T10:31:33;1.55;;;1.10;;
10880;SDS011;5493;48.884;8.338;2022-10-16T10:34:12;1.95;;;1.50;;
10880;SDS011;5493;48.884;8.338;2022-10-16T10:36:55;2.65;;;1.20;;
10880;SDS011;5493;48.884;8.338;2022-10-16T10:39:31;4.53;;;1.83;;
10880;SDS011;5493;48.884;8.338;2022-10-16T10:42:08;1.65;;;1.20;;
10880;SDS011;5493;48.884;8.338;2022-10-16T10:44:51;3.40;;;1.23;;
10880;SDS011;5493;48.884;8.338;2022-10-16T10:47:25;2.45;;;1.20;;
10880;SDS011;5493;48.884;8.338;2022-10-16T10:50:01;1.40;;;1.30;;
10880;SDS011;5493;48.884;8.338;2022-10-16T10:52:37;4.35;;;1.48;;
10880;SDS011;5493;48.884;8.338;2022-10-16T10:55:10;2.72;;;1.08;;
10880;SDS011;5493;48.884;8.338;2022-10-16T10:57:50;1.90;;;1.00;;
10880;SDS011;5493;48.884;8.338;2022-10-16T11:00:27;2.78;;;1.10;;
10880;SDS011;5493;48.884;8.338;2022-10-16T11:02:58;4.10;;;1.40;;
10880;SDS011;5493;48.884;8.338;2022-10-16T11:05:40;5.38;;;1.20;;
10880;SDS011;5493;48.884;8.338;2022-10-16T11:08:11;2.38;;;1.20;;
10880;SDS011;5493;48.884;8.338;2022-10-16T11:10:47;1.77;;;1.02;;
10880;SDS011;5493;48.884;8.338;2022-10-16T11:13:23;3.70;;;1.13;;
10880;SDS011;5493;48.884;8.338;2022-10-16T11:15:57;7.43;;;1.40;;
10880;SDS011;5493;48.884;8.338;2022-10-16T11:18:27;3.30;;;1.25;;
10880;SDS011;5493;48.884;8.338;2022-10-16T11:21:00;2.30;;;1.30;;
10880;SDS011;5493;48.884;8.338;2022-10-16T11:23:35;1.15;;;0.90;;
10880;SDS011;5493;48.884;8.338;2022-10-16T11:26:10;2.22;;;0.95;;
10880;SDS011;5493;48.884;8.338;2022-10-16T11:28:42;1.60;;;0.90;;
10880;SDS011;5493;48.884;8.338;2022-10-16T11:31:15;2.88;;;0.90;;
10880;SDS011;5493;48.884;8.338;2022-10-16T11:33:47;3.25;;;1.20;;
10880;SDS011;5493;48.884;8.338;2022-10-16T11:36:21;2.65;;;1.17;;
10880;SDS011;5493;48.884;8.338;2022-10-16T11:38:55;2.63;;;1.23;;
10880;SDS011;5493;48.884;8.338;2022-10-16T11:41:29;3.65;;;1.17;;
10880;SDS011;5493;48.884;8.338;2022-10-16T11:44:07;3.25;;;1.60;;
10880;SDS011;5493;48.884;8.338;2022-10-16T11:46:43;8.57;;;1.67;;
10880;SDS011;5493;48.884;8.338;2022-10-16T11:49:16;7.72;;;1.70;;
10880;SDS011;5493;48.884;8.338;2022-10-16T11:51:48;3.22;;;1.40;;
10880;SDS011;5493;48.884;8.338;2022-10-16T11:54:26;2.45;;;1.20;;
10880;SDS011;5493;48.884;8.338;2022-10-16T11:57:00;2.10;;;1.30;;
10880;SDS011;5493;48.884;8.338;2022-10-16T11:59:36;2.28;;;1.15;;
10880;SDS011;5493;48.884;8.338;2022-10-16T12:02:16;4.20;;;1.17;;
10880;SDS011;5493;48.884;8.338;2022-10-16T12:04:59;1.35;;;1.10;;
10880;SDS011;5493;48.884;8.338;2022-10-16T12:07:38;5.32;;;1.40;;
10880;SDS011;5493;48.884;8.338;2022-10-16T12:10:17;3.33;;;1.00;;
10880;SDS011;5493;48.884;8.338;2022-10-16T12:12:46;4.80;;;1.27;;
10880;SDS011;5493;48.884;8.338;2022-10-16T12:15:20;3.38;;;1.30;;
10880;SDS011;5493;48.884;8.338;2022-10-16T12:17:50;1.63;;;1.10;;
10880;SDS011;5493;48.884;8.338;2022-10-16T12:20:24;2.22;;;0.95;;
10880;SDS011;5493;48.884;8.338;2022-10-16T12:22:54;1.95;;;1.25;;
10880;SDS011;5493;48.884;8.338;2022-10-16T12:25:25;3.22;;;1.30;;
10880;SDS011;5493;48.884;8.338;2022-10-16T12:27:59;3.15;;;1.20;;
10880;SDS011;5493;48.884;8.338;2022-10-16T12:30:28;1.38;;;1.27;;
10880;SDS011;5493;48.884;8.338;2022-10-16T12:32:56;3.08;;;1.13;;
10880;SDS011;5493;48.884;8.338;2022-10-16T12:35:25;4.75;;;1.15;;
10880;SDS011;5493;48.884;8.338;2022-10-16T12:37:53;2.75;;;1.33;;
10880;SDS011;5493;48.884;8.338;2022-10-16T12:40:32;4.05;;;1.23;;
10880;SDS011;5493;48.884;8.338;2022-10-16T12:43:10;2.63;;;1.48;;
10880;SDS011;5493;48.884;8.338;2022-10-16T12:45:39;2.00;;;1.10;;
10880;SDS011;5493;48.884;8.338;2022-10-16T12:48:18;10.93;;;1.40;;
10880;SDS011;5493;48.884;8.338;2022-10-16T12:50:46;7.78;;;1.20;;
10880;SDS011;5493;48.884;8.338;2022-10-16T12:53:20;4.18;;;1.60;;
10880;SDS011;5493;48.884;8.338;2022-10-16T12:55:52;3.53;;;1.40;;
10880;SDS011;5493;48.884;8.338;2022-10-16T13:01:24;3.92;;;1.35;;
10880;SDS011;5493;48.884;8.338;2022-10-16T13:07:01;3.50;;;1.60;;
10880;SDS011;5493;48.884;8.338;2022-10-16T13:09:43;3.13;;;1.27;;
10880;SDS011;5493;48.884;8.338;2022-10-16T13:12:28;3.55;;;1.33;;
10880;SDS011;5493;48.884;8.338;2022-10-16T13:15:21;2.15;;;1.50;;
10880;SDS011;5493;48.884;8.338;2022-10-16T13:17:59;4.18;;;1.48;;
10880;SDS011;5493;48.884;8.338;2022-10-16T13:20:33;5.53;;;1.52;;
10880;SDS011;5493;48.884;8.338;2022-10-16T13:23:08;2.15;;;1.25;;
10880;SDS011;5493;48.884;8.338;2022-10-16T13:25:45;2.45;;;1.00;;
10880;SDS011;5493;48.884;8.338;2022-10-16T13:28:27;6.35;;;1.05;;
10880;SDS011;5493;48.884;8.338;2022-10-16T13:30:56;2.42;;;1.20;;
10880;SDS011;5493;48.884;8.338;2022-10-16T13:33:26;1.75;;;1.25;;
10880;SDS011;5493;48.884;8.338;2022-10-16T13:35:58;1.65;;;1.23;;
10880;SDS011;5493;48.884;8.338;2022-10-16T13:38:25;1.20;;;1.10;;
10880;SDS011;5493;48.884;8.338;2022-10-16T13:40:54;2.13;;;1.05;;
10880;SDS011;5493;48.884;8.338;2022-10-16T13:43:25;4.15;;;1.20;;
10880;SDS011;5493;48.884;8.338;2022-10-16T13:45:55;3.72;;;1.33;;
10880;SDS011;5493;48.884;8.338;2022-10-16T13:48:23;1.33;;;1.23;;
10880;SDS011;5493;48.884;8.338;2022-10-16T13:51:03;3.85;;;1.40;;
10880;SDS011;5493;48.884;8.338;2022-10-16T13:53:32;7.68;;;1.60;;
10880;SDS011;5493;48.884;8.338;2022-10-16T13:56:01;5.75;;;1.27;;
10880;SDS011;5493;48.884;8.338;2022-10-16T13:58:31;4.18;;;1.30;;
10880;SDS011;5493;48.884;8.338;2022-10-16T14:00:58;4.55;;;1.33;;
10880;SDS011;5493;48.884;8.338;2022-10-16T14:03:26;4.63;;;1.83;;
10880;SDS011;5493;48.884;8.338;2022-10-16T14:05:54;4.43;;;1.08;;
10880;SDS011;5493;48.884;8.338;2022-10-16T14:08:23;4.43;;;1.00;;
10880;SDS011;5493;48.884;8.338;2022-10-16T14:10:53;3.67;;;1.27;;
10880;SDS011;5493;48.884;8.338;2022-10-16T14:13:24;2.45;;;1.20;;
10880;SDS011;5493;48.884;8.338;2022-10-16T14:15:57;5.78;;;1.30;;
10880;SDS011;5493;48.884;8.338;2022-10-16T14:18:29;3.00;;;1.15;;
10880;SDS011;5493;48.884;8.338;2022-10-16T14:21:01;3.20;;;1.30;;
10880;SDS011;5493;48.884;8.338;2022-10-16T14:23:30;2.25;;;1.20;;
10880;SDS011;5493;48.884;8.338;2022-10-16T14:26:05;2.00;;;1.30;;
10880;SDS011;5493;48.884;8.338;2022-10-16T14:28:39;6.10;;;1.10;;
10880;SDS011;5493;48.884;8.338;2022-10-16T14:31:20;4.32;;;1.30;;
10880;SDS011;5493;48.884;8.338;2022-10-16T14:33:50;3.75;;;1.33;;
10880;SDS011;5493;48.884;8.338;2022-10-16T14:36:17;4.72;;;1.40;;
10880;SDS011;5493;48.884;8.338;2022-10-16T14:38:48;3.10;;;0.90;;
10880;SDS011;5493;48.884;8.338;2022-10-16T14:41:20;5.50;;;1.20;;
10880;SDS011;5493;48.884;8.338;2022-10-16T14:43:49;4.03;;;1.30;;
10880;SDS011;5493;48.884;8.338;2022-10-16T14:46:20;1.92;;;1.13;;
10880;SDS011;5493;48.884;8.338;2022-10-16T14:48:51;2.78;;;1.13;;
10880;SDS011;5493;48.884;8.338;2022-10-16T14:51:23;6.07;;;2.55;;
10880;SDS011;5493;48.884;8.338;2022-10-16T14:53:50;6.45;;;1.40;;
10880;SDS011;5493;48.884;8.338;2022-10-16T14:56:18;7.05;;;1.52;;
10880;SDS011;5493;48.884;8.338;2022-10-16T14:58:46;1.45;;;1.30;;
10880;SDS011;5493;48.884;8.338;2022-10-16T15:01:13;2.08;;;1.05;;
10880;SDS011;5493;48.884;8.338;2022-10-16T15:03:41;3.53;;;1.35;;
10880;SDS011;5493;48.884;8.338;2022-10-16T15:06:09;5.97;;;1.92;;
10880;SDS011;5493;48.884;8.338;2022-10-16T15:08:37;2.20;;;1.60;;
10880;SDS011;5493;48.884;8.338;2022-10-16T15:11:03;4.20;;;1.83;;
10880;SDS011;5493;48.884;8.338;2022-10-16T15:13:30;3.90;;;1.25;;
10880;SDS011;5493;48.884;8.338;2022-10-16T15:15:57;6.25;;;1.55;;
10880;SDS011;5493;48.884;8.338;2022-10-16T15:18:24;3.63;;;1.40;;
10880;SDS011;5493;48.884;8.338;2022-10-16T15:20:52;11.35;;;2.30;;
10880;SDS011;5493;48.884;8.338;2022-10-16T15:23:19;8.38;;;1.55;;
10880;SDS011;5493;48.884;8.338;2022-10-16T15:25:48;3.92;;;1.40;;
10880;SDS011;5493;48.884;8.338;2022-10-16T15:28:16;3.78;;;1.30;;